createdAt,value
2022-10-24T00:00:44.194Z,24.80
2022-10-24T00:03:18.773Z,24.80
2022-10-24T00:05:50.767Z,25.00
2022-10-24T00:08:22.102Z,25.00
2022-10-24T00:10:53.263Z,26.00
2022-10-24T00:13:24.094Z,22.40
2022-10-24T00:15:55.159Z,23.90
2022-10-24T00:18:26.581Z,25.20
2022-10-24T00:20:58.784Z,24.40
2022-10-24T00:23:29.649Z,21.50
2022-10-24T00:26:04.650Z,23.50
2022-10-24T00:28:36.730Z,24.00
2022-10-24T00:31:09.350Z,23.50
2022-10-24T00:33:40.614Z,23.60
2022-10-24T00:36:14.869Z,23.50
2022-10-24T00:38:46.323Z,24.50
2022-10-24T00:41:21.073Z,23.40
2022-10-24T00:43:53.687Z,22.30
2022-10-24T00:46:24.462Z,22.20
2022-10-24T00:48:56.535Z,23.50
2022-10-24T00:51:34.200Z,22.80
2022-10-24T00:54:09.771Z,23.60
2022-10-24T00:56:45.042Z,21.60
2022-10-24T00:59:19.174Z,21.10
2022-10-24T01:01:50.558Z,22.00
2022-10-24T01:04:21.479Z,21.80
2022-10-24T01:07:01.201Z,20.00
2022-10-24T01:09:50.527Z,18.50
2022-10-24T01:12:34.475Z,22.60
2022-10-24T01:15:15.461Z,23.40
2022-10-24T01:17:53.522Z,21.50
2022-10-24T01:20:58.331Z,23.30
2022-10-24T01:23:56.326Z,18.90
2022-10-24T01:26:54.736Z,19.30
2022-10-24T01:29:46.422Z,21.00
2022-10-24T01:32:29.652Z,21.40
2022-10-24T01:35:08.039Z,20.10
2022-10-24T01:37:44.900Z,19.30
2022-10-24T01:40:21.575Z,19.60
2022-10-24T01:42:55.612Z,19.70
2022-10-24T01:45:31.386Z,21.80
2022-10-24T01:48:06.401Z,20.70
2022-10-24T01:50:39.479Z,19.60
2022-10-24T01:53:13.193Z,18.60
2022-10-24T01:55:46.806Z,20.50
2022-10-24T01:58:17.816Z,18.50
2022-10-24T02:00:51.332Z,18.60
2022-10-24T02:03:28.101Z,19.00
2022-10-24T02:06:04.748Z,18.50
2022-10-24T02:08:40.243Z,18.90
2022-10-24T02:11:12.825Z,17.40
2022-10-24T02:13:49.085Z,19.60
2022-10-24T02:16:21.596Z,19.70
2022-10-24T02:18:56.063Z,18.00
2022-10-24T02:21:34.694Z,18.60
2022-10-24T02:24:11.399Z,18.90
2022-10-24T02:26:48.609Z,18.20
2022-10-24T02:29:25.695Z,17.90
2022-10-24T02:31:59.649Z,18.30
2022-10-24T02:34:35.336Z,18.50
2022-10-24T02:37:07.788Z,18.70
2022-10-24T02:39:41.190Z,19.70
2022-10-24T02:42:15.514Z,20.00
2022-10-24T02:44:48.226Z,19.20
2022-10-24T02:47:24.120Z,19.40
2022-10-24T02:49:55.556Z,19.00
2022-10-24T02:52:26.571Z,19.40
2022-10-24T02:54:57.645Z,20.00
2022-10-24T02:57:28.616Z,18.20
2022-10-24T02:59:59.580Z,19.80
2022-10-24T03:02:30.563Z,19.00
2022-10-24T03:05:01.904Z,20.10
2022-10-24T03:07:33.009Z,18.50
2022-10-24T03:10:04.209Z,19.20
2022-10-24T03:12:35.350Z,18.70
2022-10-24T03:15:07.289Z,20.00
2022-10-24T03:17:38.554Z,19.90
2022-10-24T03:20:11.241Z,26.50
2022-10-24T03:22:42.791Z,20.80
2022-10-24T03:25:13.775Z,21.40
2022-10-24T03:27:45.637Z,19.70
2022-10-24T03:30:17.210Z,19.80
2022-10-24T03:32:48.422Z,21.00
2022-10-24T03:35:19.836Z,20.10
2022-10-24T03:37:50.824Z,23.90
2022-10-24T03:40:21.817Z,21.80
2022-10-24T03:42:53.238Z,18.70
2022-10-24T03:45:24.297Z,20.70
2022-10-24T03:47:55.735Z,20.70
2022-10-24T03:50:26.745Z,20.00
2022-10-24T03:52:57.948Z,20.50
2022-10-24T03:55:30.008Z,20.30
2022-10-24T03:58:01.416Z,20.60
2022-10-24T04:00:34.988Z,21.00
2022-10-24T04:03:06.125Z,21.90
2022-10-24T04:08:13.374Z,20.10
2022-10-24T04:10:44.370Z,19.60
2022-10-24T04:13:15.464Z,20.10
2022-10-24T04:15:46.838Z,20.20
2022-10-24T04:18:17.837Z,20.20
2022-10-24T04:20:48.866Z,20.50
2022-10-24T04:23:19.844Z,18.80
2022-10-24T04:25:51.305Z,19.80
2022-10-24T04:28:22.383Z,19.40
2022-10-24T04:30:58.584Z,18.50
2022-10-24T04:33:29.706Z,19.30
2022-10-24T04:36:00.741Z,19.70
2022-10-24T04:38:33.659Z,19.40
2022-10-24T04:41:07.325Z,20.10
2022-10-24T04:43:41.108Z,18.90
2022-10-24T04:46:12.075Z,18.90
2022-10-24T04:48:43.202Z,19.40
2022-10-24T04:51:18.542Z,19.60
2022-10-24T04:53:52.737Z,14.60
2022-10-24T04:56:25.970Z,17.60
2022-10-24T04:58:56.972Z,17.60
2022-10-24T05:01:28.146Z,17.40
2022-10-24T05:03:59.202Z,17.30
2022-10-24T05:06:30.301Z,17.20
2022-10-24T05:09:01.293Z,16.70
2022-10-24T05:11:33.158Z,16.80
2022-10-24T05:14:04.393Z,27.00
2022-10-24T05:16:35.534Z,20.20
2022-10-24T05:19:08.798Z,19.30
2022-10-24T05:21:40.351Z,19.10
2022-10-24T05:24:11.588Z,19.90
2022-10-24T05:26:42.786Z,19.90
2022-10-24T05:29:13.895Z,19.40
2022-10-24T05:31:44.903Z,19.10
2022-10-24T05:34:15.947Z,19.10
2022-10-24T05:36:47.120Z,15.50
2022-10-24T05:39:18.368Z,18.60
2022-10-24T05:41:52.162Z,19.20
2022-10-24T05:44:26.114Z,19.20
2022-10-24T05:46:57.674Z,19.10
2022-10-24T05:49:28.761Z,18.30
2022-10-24T05:52:00.021Z,18.40
2022-10-24T05:54:42.535Z,22.20
2022-10-24T05:57:22.453Z,22.40
2022-10-24T05:59:53.478Z,18.90
2022-10-24T06:02:28.214Z,19.50
2022-10-24T06:04:59.898Z,18.70
2022-10-24T06:07:31.723Z,17.90
2022-10-24T06:10:03.806Z,19.90
2022-10-24T06:12:36.522Z,21.70
2022-10-24T06:15:11.117Z,20.60
2022-10-24T06:17:42.498Z,19.00
2022-10-24T06:20:13.807Z,20.10
2022-10-24T06:22:46.878Z,18.50
2022-10-24T06:25:18.597Z,18.00
2022-10-24T06:27:49.818Z,17.80
2022-10-24T06:30:21.253Z,19.70
2022-10-24T06:32:52.495Z,18.40
2022-10-24T06:35:24.862Z,17.20
2022-10-24T06:37:56.510Z,18.00
2022-10-24T06:40:28.599Z,18.70
2022-10-24T06:43:00.375Z,18.10
2022-10-24T06:45:33.833Z,17.10
2022-10-24T06:48:05.517Z,18.00
2022-10-24T06:50:40.841Z,16.20
2022-10-24T06:53:13.185Z,16.20
2022-10-24T06:55:44.757Z,17.70
2022-10-24T06:58:16.786Z,16.90
2022-10-24T07:00:48.161Z,17.30
2022-10-24T07:03:19.474Z,17.50
2022-10-24T07:05:51.234Z,17.20
2022-10-24T07:08:25.591Z,17.00
2022-10-24T07:11:11.958Z,17.70
2022-10-24T07:13:43.522Z,16.90
2022-10-24T07:16:15.486Z,16.70
2022-10-24T07:18:47.636Z,16.90
2022-10-24T07:21:21.855Z,16.60
2022-10-24T07:23:55.048Z,17.60
2022-10-24T07:26:31.202Z,16.40
2022-10-24T07:29:04.850Z,16.90
2022-10-24T07:31:37.866Z,16.10
2022-10-24T07:34:10.891Z,16.10
2022-10-24T07:36:43.809Z,15.50
2022-10-24T07:39:16.146Z,16.00
2022-10-24T07:41:47.441Z,16.50
2022-10-24T07:44:19.043Z,16.40
2022-10-24T07:46:50.783Z,16.50
2022-10-24T07:49:30.151Z,15.10
2022-10-24T07:52:07.225Z,16.10
2022-10-24T07:54:44.861Z,19.90
2022-10-24T07:57:16.175Z,16.20
2022-10-24T07:59:47.623Z,17.00
2022-10-24T08:02:19.826Z,14.90
2022-10-24T08:04:53.978Z,17.20
2022-10-24T08:07:25.476Z,17.60
2022-10-24T08:09:56.973Z,17.00
2022-10-24T08:12:28.449Z,17.50
2022-10-24T08:15:00.640Z,17.00
2022-10-24T08:20:05.406Z,16.80
2022-10-24T08:22:36.959Z,16.50
2022-10-24T08:25:11.362Z,16.00
2022-10-24T08:30:20.400Z,15.50
2022-10-24T08:32:51.697Z,16.90
2022-10-24T08:35:23.627Z,15.10
2022-10-24T08:37:55.093Z,16.60
2022-10-24T08:40:26.976Z,15.60
2022-10-24T08:42:58.288Z,17.00
2022-10-24T08:45:37.155Z,16.50
2022-10-24T08:48:14.599Z,17.10
2022-10-24T08:50:52.751Z,16.50
2022-10-24T08:53:29.177Z,16.90
2022-10-24T08:56:35.131Z,15.40
2022-10-24T08:59:08.184Z,15.20
2022-10-24T09:01:45.399Z,16.50
2022-10-24T09:04:21.212Z,15.90
2022-10-24T09:06:55.794Z,14.40
2022-10-24T09:09:31.575Z,14.60
2022-10-24T09:12:05.203Z,14.30
2022-10-24T09:14:40.046Z,14.20
2022-10-24T09:17:20.320Z,14.00
2022-10-24T09:19:54.316Z,14.40
2022-10-24T09:22:28.295Z,13.10
2022-10-24T09:25:03.227Z,14.60
2022-10-24T09:27:37.606Z,13.90
2022-10-24T09:30:16.741Z,14.80
2022-10-24T09:32:49.163Z,12.90
2022-10-24T09:35:24.022Z,12.60
2022-10-24T09:37:56.656Z,13.60
2022-10-24T09:40:31.715Z,12.70
2022-10-24T09:43:14.617Z,13.30
2022-10-24T09:45:47.903Z,15.00
2022-10-24T09:48:27.576Z,15.00
2022-10-24T09:51:04.247Z,13.70
2022-10-24T09:53:37.801Z,13.30
2022-10-24T09:56:13.869Z,14.40
2022-10-24T09:58:45.519Z,14.50
2022-10-24T10:01:23.953Z,14.20
2022-10-24T10:04:10.046Z,14.30
2022-10-24T10:06:47.140Z,13.80
2022-10-24T10:09:25.584Z,13.90
2022-10-24T10:12:03.584Z,14.20
2022-10-24T10:14:41.618Z,13.60
2022-10-24T10:17:25.613Z,13.20
2022-10-24T10:19:57.862Z,14.40
2022-10-24T10:22:31.912Z,14.50
2022-10-24T10:25:03.677Z,12.50
2022-10-24T10:27:37.935Z,13.10
2022-10-24T10:30:30.442Z,14.80
2022-10-24T10:33:24.912Z,13.60
2022-10-24T10:36:04.471Z,13.60
2022-10-24T10:38:49.578Z,19.70
2022-10-24T10:41:35.225Z,13.80
2022-10-24T10:44:24.503Z,13.60
2022-10-24T10:47:07.313Z,12.90
2022-10-24T10:49:42.487Z,12.90
2022-10-24T10:55:10.862Z,13.00
2022-10-24T10:57:49.484Z,12.40
2022-10-24T11:00:28.817Z,13.50
2022-10-24T11:03:16.950Z,12.40
2022-10-24T11:06:05.176Z,12.60
2022-10-24T11:09:04.933Z,12.10
2022-10-24T11:11:41.138Z,12.90
2022-10-24T11:14:23.637Z,13.70
2022-10-24T11:16:58.157Z,12.20
2022-10-24T11:19:35.170Z,13.30
2022-10-24T11:22:11.869Z,13.10
2022-10-24T11:24:48.360Z,12.20
2022-10-24T11:27:29.504Z,11.50
2022-10-24T11:30:06.824Z,12.60
2022-10-24T11:32:44.784Z,16.30
2022-10-24T11:35:26.571Z,14.30
2022-10-24T11:38:03.280Z,12.60
2022-10-24T11:40:36.804Z,11.30
2022-10-24T11:43:17.416Z,11.70
2022-10-24T11:45:55.732Z,12.10
2022-10-24T11:48:35.654Z,11.60
2022-10-24T11:51:17.749Z,11.00
2022-10-24T11:53:56.978Z,11.20
2022-10-24T11:56:34.861Z,11.10
2022-10-24T11:59:08.784Z,10.40
2022-10-24T12:02:16.685Z,10.30
2022-10-24T12:05:23.896Z,9.60
2022-10-24T12:08:28.980Z,15.50
2022-10-24T12:11:23.787Z,10.80
2022-10-24T12:14:23.027Z,8.40
2022-10-24T12:17:15.895Z,8.90
2022-10-24T12:19:50.693Z,7.60
2022-10-24T12:25:16.294Z,8.40
2022-10-24T12:27:53.746Z,8.00
2022-10-24T12:30:27.588Z,7.40
2022-10-24T12:33:09.879Z,8.00
2022-10-24T12:35:56.519Z,7.50
2022-10-24T12:39:04.854Z,8.50
2022-10-24T12:41:44.797Z,7.80
2022-10-24T12:44:51.782Z,7.60
2022-10-24T12:48:05.387Z,15.60
2022-10-24T12:50:57.435Z,7.90
2022-10-24T12:54:00.686Z,7.50
2022-10-24T12:56:33.200Z,8.10
2022-10-24T12:59:19.910Z,6.90
2022-10-24T13:02:42.774Z,7.80
2022-10-24T13:05:44.462Z,7.20
2022-10-24T13:08:43.190Z,7.40
2022-10-24T13:11:32.440Z,6.80
2022-10-24T13:14:21.501Z,6.50
2022-10-24T13:17:03.433Z,6.30
2022-10-24T13:19:38.701Z,6.80
2022-10-24T13:22:30.821Z,6.90
2022-10-24T13:25:18.478Z,7.00
2022-10-24T13:28:27.374Z,6.30
2022-10-24T13:31:29.683Z,6.90
2022-10-24T13:34:17.918Z,6.80
2022-10-24T13:36:51.954Z,6.80
2022-10-24T13:39:31.119Z,6.80
2022-10-24T13:42:07.782Z,15.00
2022-10-24T13:44:46.689Z,8.20
2022-10-24T13:47:22.506Z,7.20
2022-10-24T13:50:01.907Z,8.40
2022-10-24T13:52:39.772Z,7.30
2022-10-24T13:55:24.806Z,8.30
2022-10-24T13:58:13.376Z,8.10
2022-10-24T14:00:58.730Z,7.40
2022-10-24T14:03:32.569Z,8.00
2022-10-24T14:06:08.458Z,6.70
2022-10-24T14:11:40.672Z,7.20
2022-10-24T14:14:26.849Z,6.90
2022-10-24T14:17:23.649Z,7.30
2022-10-24T14:19:59.341Z,7.70
2022-10-24T14:22:37.091Z,6.80
2022-10-24T14:25:24.240Z,6.70
2022-10-24T14:27:57.415Z,6.90
2022-10-24T14:30:34.499Z,7.10
2022-10-24T14:33:23.756Z,7.10
2022-10-24T14:35:57.963Z,7.10
2022-10-24T14:38:33.915Z,7.10
2022-10-24T14:46:35.525Z,6.80
2022-10-24T14:49:30.645Z,6.90
2022-10-24T14:52:09.562Z,7.70
2022-10-24T14:54:45.525Z,7.70
2022-10-24T14:57:23.144Z,10.50
2022-10-24T14:59:56.506Z,10.80
2022-10-24T15:02:32.856Z,8.10
2022-10-24T15:05:32.739Z,7.30
2022-10-24T15:08:28.863Z,7.60
2022-10-24T15:11:21.680Z,8.20
2022-10-24T15:14:06.343Z,8.70
2022-10-24T15:19:19.497Z,7.90
2022-10-24T15:21:51.049Z,7.60
2022-10-24T15:24:29.114Z,7.80
2022-10-24T15:27:14.014Z,7.80
2022-10-24T15:29:45.199Z,8.70
2022-10-24T15:32:19.593Z,8.60
2022-10-24T15:34:56.742Z,8.50
2022-10-24T15:37:28.697Z,9.20
2022-10-24T15:40:17.968Z,9.80
2022-10-24T15:42:49.754Z,8.90
2022-10-24T15:45:21.703Z,8.70
2022-10-24T15:47:54.220Z,8.80
2022-10-24T15:50:26.965Z,8.70
2022-10-24T15:52:59.501Z,8.30
2022-10-24T15:55:31.871Z,9.00
2022-10-24T15:58:03.322Z,8.80
2022-10-24T16:00:35.629Z,10.10
2022-10-24T16:03:08.775Z,8.80
2022-10-24T16:05:42.845Z,9.30
2022-10-24T16:08:21.006Z,9.10
2022-10-24T16:10:53.885Z,9.30
2022-10-24T16:13:26.135Z,11.50
2022-10-24T16:15:57.308Z,8.70
2022-10-24T16:18:28.455Z,10.70
2022-10-24T16:21:00.141Z,9.90
2022-10-24T16:23:31.328Z,9.80
2022-10-24T16:26:02.829Z,14.70
2022-10-24T16:28:34.826Z,13.00
2022-10-24T16:31:07.416Z,11.00
2022-10-24T16:33:39.002Z,9.40
2022-10-24T16:36:10.984Z,8.90
2022-10-24T16:38:42.432Z,10.80
2022-10-24T16:41:21.871Z,9.80
2022-10-24T16:43:54.686Z,9.00
2022-10-24T16:46:28.071Z,9.20
2022-10-24T16:49:02.534Z,9.70
2022-10-24T16:51:34.327Z,9.80
2022-10-24T16:54:05.410Z,9.50
2022-10-24T16:56:36.953Z,10.10
2022-10-24T16:59:10.403Z,9.40
2022-10-24T17:01:45.244Z,10.40
2022-10-24T17:04:16.451Z,9.60
2022-10-24T17:06:47.835Z,9.80
2022-10-24T17:09:19.566Z,9.70
2022-10-24T17:11:51.124Z,10.10
2022-10-24T17:14:22.762Z,9.90
2022-10-24T17:16:54.459Z,10.30
2022-10-24T17:19:26.212Z,11.10
2022-10-24T17:21:57.809Z,10.80
2022-10-24T17:24:30.211Z,10.60
2022-10-24T17:27:03.141Z,10.90
2022-10-24T17:29:36.407Z,11.80
2022-10-24T17:32:08.746Z,10.90
2022-10-24T17:34:41.900Z,12.10
2022-10-24T17:37:26.181Z,11.70
2022-10-24T17:40:03.527Z,12.40
2022-10-24T17:42:35.998Z,12.20
2022-10-24T17:45:14.357Z,11.90
2022-10-24T17:50:19.179Z,17.80
2022-10-24T17:52:52.319Z,14.90
2022-10-24T17:55:45.603Z,22.90
2022-10-24T17:58:17.515Z,14.00
2022-10-24T18:00:49.137Z,12.30
2022-10-24T18:03:20.632Z,12.60
2022-10-24T18:05:51.712Z,12.30
2022-10-24T18:08:23.595Z,11.30
2022-10-24T18:10:55.667Z,11.10
2022-10-24T18:13:27.046Z,11.10
2022-10-24T18:15:58.288Z,11.40
2022-10-24T18:18:30.303Z,12.10
2022-10-24T18:21:10.997Z,11.80
2022-10-24T18:23:42.721Z,11.90
2022-10-24T18:26:15.801Z,11.00
2022-10-24T18:28:48.929Z,11.80
2022-10-24T18:31:22.205Z,12.90
2022-10-24T18:33:53.463Z,12.40
2022-10-24T18:37:14.065Z,12.10
2022-10-24T18:39:45.569Z,11.70
2022-10-24T18:42:26.828Z,10.90
2022-10-24T18:44:59.455Z,11.70
2022-10-24T18:47:32.555Z,11.40
2022-10-24T18:50:04.732Z,11.90
2022-10-24T18:52:48.108Z,11.50
2022-10-24T18:55:22.913Z,11.80
2022-10-24T18:57:55.013Z,13.40
2022-10-24T19:00:28.206Z,14.80
2022-10-24T19:03:26.194Z,14.00
2022-10-24T19:06:06.326Z,13.00
2022-10-24T19:08:37.949Z,12.20
2022-10-24T19:13:46.284Z,12.30
2022-10-24T19:16:28.736Z,13.00
2022-10-24T19:19:03.805Z,13.00
2022-10-24T19:21:35.327Z,14.30
2022-10-24T19:24:07.155Z,12.90
2022-10-24T19:33:30.434Z,13.20
2022-10-24T19:36:05.165Z,13.50
2022-10-24T19:38:36.446Z,13.60
2022-10-24T19:41:11.417Z,13.20
2022-10-24T19:43:42.744Z,12.50
2022-10-24T19:46:42.278Z,14.30
2022-10-24T19:49:13.627Z,15.70
2022-10-24T19:51:45.048Z,18.60
2022-10-24T19:54:16.271Z,14.60
2022-10-24T19:56:49.467Z,13.70
2022-10-24T19:59:26.003Z,11.80
2022-10-24T20:04:31.525Z,13.80
2022-10-24T20:07:03.006Z,11.40
2022-10-24T20:09:34.057Z,10.50
2022-10-24T20:12:06.179Z,10.90
2022-10-24T20:15:02.835Z,11.50
2022-10-24T20:17:33.911Z,10.90
2022-10-24T20:20:05.470Z,10.00
2022-10-24T20:22:40.545Z,10.90
2022-10-24T20:31:18.076Z,11.30
2022-10-24T20:33:49.211Z,12.80
2022-10-24T20:36:22.177Z,10.70
2022-10-24T20:38:53.383Z,11.30
2022-10-24T20:41:24.442Z,11.10
2022-10-24T20:48:59.383Z,12.50
2022-10-24T20:51:30.606Z,12.60
2022-10-24T20:54:02.007Z,12.10
2022-10-24T20:56:33.080Z,11.80
2022-10-24T20:59:04.641Z,10.70
2022-10-24T21:01:35.999Z,11.40
2022-10-24T21:04:07.249Z,11.10
2022-10-24T21:06:38.367Z,12.70
2022-10-24T21:09:09.829Z,11.30
2022-10-24T21:11:40.865Z,10.60
2022-10-24T21:14:15.075Z,11.40
2022-10-24T21:16:46.494Z,14.00
2022-10-24T21:19:18.147Z,11.90
2022-10-24T21:21:49.464Z,11.20
2022-10-24T21:24:20.654Z,12.60
2022-10-24T21:26:51.737Z,11.40
2022-10-24T21:29:38.076Z,10.60
2022-10-24T21:32:09.380Z,10.60
2022-10-24T21:34:40.405Z,10.30
2022-10-24T21:37:11.733Z,10.20
2022-10-24T21:39:42.791Z,12.10
2022-10-24T21:42:14.111Z,10.70
2022-10-24T21:44:45.176Z,9.90
2022-10-24T21:47:16.380Z,9.00
2022-10-24T21:50:12.817Z,10.50
2022-10-24T21:52:44.489Z,9.70
2022-10-24T21:55:15.916Z,10.10
2022-10-24T21:57:47.166Z,10.00
2022-10-24T22:00:19.070Z,10.80
2022-10-24T22:02:50.982Z,9.10
2022-10-24T22:05:22.457Z,9.80
2022-10-24T22:07:53.597Z,10.30
2022-10-24T22:10:26.117Z,9.50
2022-10-24T22:12:57.261Z,9.70
2022-10-24T22:15:28.213Z,9.40
2022-10-24T22:17:59.076Z,10.80
2022-10-24T22:20:29.892Z,11.00
2022-10-24T22:23:00.736Z,9.80
2022-10-24T22:25:31.961Z,9.80
2022-10-24T22:28:02.856Z,10.10
2022-10-24T22:30:33.680Z,10.80
2022-10-24T22:33:05.514Z,10.50
2022-10-24T22:35:38.657Z,9.80
2022-10-24T22:38:11.538Z,11.30
2022-10-24T22:40:43.327Z,10.90
2022-10-24T22:43:14.991Z,10.80
2022-10-24T22:45:55.661Z,10.30
2022-10-24T22:48:31.359Z,10.50
2022-10-24T22:51:02.985Z,10.80
2022-10-24T22:53:34.997Z,10.90
2022-10-24T22:56:14.609Z,11.50
2022-10-24T22:58:47.345Z,11.60
2022-10-24T23:01:30.296Z,10.80
2022-10-24T23:04:16.866Z,10.20
2022-10-24T23:06:52.920Z,10.30
2022-10-24T23:09:23.875Z,10.70
2022-10-24T23:11:56.036Z,10.70
2022-10-24T23:14:27.938Z,11.20
2022-10-24T23:17:01.933Z,11.30
2022-10-24T23:19:34.664Z,11.40
2022-10-24T23:22:20.766Z,11.00
2022-10-24T23:24:55.284Z,10.70
2022-10-24T23:27:38.118Z,11.70
2022-10-24T23:30:18.835Z,11.10
2022-10-24T23:32:52.179Z,11.50
2022-10-24T23:35:25.270Z,11.60
2022-10-24T23:37:57.088Z,11.20
2022-10-24T23:40:34.946Z,12.30
2022-10-24T23:43:15.352Z,11.80
2022-10-24T23:45:56.630Z,10.90
2022-10-24T23:48:46.469Z,11.60
2022-10-24T23:51:24.727Z,11.30
2022-10-24T23:53:57.575Z,11.30
2022-10-24T23:56:30.229Z,10.90
2022-10-24T23:59:01.570Z,11.60
